sensor_id;sensor_type;location;lat;lon;timestamp;pressure;altitude;pressure_sealevel;temperature;humidity
7748;BME280;3918;42.564;23.164;2022-09-30T05:01:18;-11650.84;;;-142.29;100.00
7748;BME280;3918;42.564;23.164;2022-09-30T05:03:45;-11650.84;;;-142.29;100.00
7748;BME280;3918;42.564;23.164;2022-09-30T05:06:13;-11650.84;;;-142.29;100.00
7748;BME280;3918;42.564;23.164;2022-09-30T05:08:40;-11650.84;;;-142.29;100.00
7748;BME280;3918;42.564;23.164;2022-09-30T05:11:10;-11650.84;;;-142.29;100.00
7748;BME280;3918;42.564;23.164;2022-09-30T05:13:39;-11650.84;;;-142.29;100.00
7748;BME280;3918;42.564;23.164;2022-09-30T05:16:07;-11650.84;;;-142.29;100.00
7748;BME280;3918;42.564;23.164;2022-09-30T05:18:35;-11650.84;;;-142.29;100.00
7748;BME280;3918;42.564;23.164;2022-09-30T05:21:03;-11650.84;;;-142.29;100.00
7748;BME280;3918;42.564;23.164;2022-09-30T05:23:30;-11650.84;;;-142.29;100.00
7748;BME280;3918;42.564;23.164;2022-09-30T05:25:58;-11650.84;;;-142.29;100.00
7748;BME280;3918;42.564;23.164;2022-09-30T05:28:25;-11650.84;;;-142.29;97.08
7748;BME280;3918;42.564;23.164;2022-09-30T05:30:55;-11650.84;;;-142.29;87.47
7748;BME280;3918;42.564;23.164;2022-09-30T05:33:23;-11650.84;;;-142.29;80.09
7748;BME280;3918;42.564;23.164;2022-09-30T05:35:51;-11650.84;;;-142.29;79.31
7748;BME280;3918;42.564;23.164;2022-09-30T05:38:18;-11650.84;;;-142.29;78.14
7748;BME280;3918;42.564;23.164;2022-09-30T05:40:45;-11650.84;;;-142.29;77.42
7748;BME280;3918;42.564;23.164;2022-09-30T05:43:12;-11650.84;;;-142.29;76.65
7748;BME280;3918;42.564;23.164;2022-09-30T05:45:38;-11650.84;;;-142.29;76.70
7748;BME280;3918;42.564;23.164;2022-09-30T05:48:05;-11650.84;;;-142.29;72.93
7748;BME280;3918;42.564;23.164;2022-09-30T05:50:32;-11650.84;;;-142.29;73.05
7748;BME280;3918;42.564;23.164;2022-09-30T05:53:01;-11650.84;;;-142.29;73.01
7748;BME280;3918;42.564;23.164;2022-09-30T05:55:27;-11650.84;;;-142.29;69.70
7748;BME280;3918;42.564;23.164;2022-09-30T05:57:55;-11650.84;;;-142.29;70.60
7748;BME280;3918;42.564;23.164;2022-09-30T06:00:22;-11650.84;;;-142.29;72.29
7748;BME280;3918;42.564;23.164;2022-09-30T06:02:52;-11650.84;;;-142.29;74.13
7748;BME280;3918;42.564;23.164;2022-09-30T06:05:19;-11650.84;;;-142.29;72.07
7748;BME280;3918;42.564;23.164;2022-09-30T06:07:46;-11650.84;;;-142.29;70.18
7748;BME280;3918;42.564;23.164;2022-09-30T06:10:16;-11650.84;;;-142.29;67.44
7748;BME280;3918;42.564;23.164;2022-09-30T06:12:42;-11650.84;;;-142.29;67.51
7748;BME280;3918;42.564;23.164;2022-09-30T06:15:09;-11650.84;;;-142.29;66.04
7748;BME280;3918;42.564;23.164;2022-09-30T06:17:36;-11650.84;;;-142.29;67.95
7748;BME280;3918;42.564;23.164;2022-09-30T06:20:03;-11650.84;;;-142.29;66.49
7748;BME280;3918;42.564;23.164;2022-09-30T06:22:32;-11650.84;;;-142.29;64.08
7748;BME280;3918;42.564;23.164;2022-09-30T06:25:01;-11650.84;;;-142.29;62.62
7748;BME280;3918;42.564;23.164;2022-09-30T06:27:32;-11650.84;;;-142.29;63.66
7748;BME280;3918;42.564;23.164;2022-09-30T06:29:59;-11650.84;;;-142.29;64.42
7748;BME280;3918;42.564;23.164;2022-09-30T06:32:26;-11650.84;;;-142.29;62.08
7748;BME280;3918;42.564;23.164;2022-09-30T06:34:52;-11650.84;;;-142.29;62.29
7748;BME280;3918;42.564;23.164;2022-09-30T06:37:20;-11650.84;;;-142.29;62.42
7748;BME280;3918;42.564;23.164;2022-09-30T06:39:47;-11650.84;;;-142.29;60.39
7748;BME280;3918;42.564;23.164;2022-09-30T06:42:14;-11650.84;;;-142.29;57.11
7748;BME280;3918;42.564;23.164;2022-09-30T06:44:42;-11650.84;;;-142.29;57.37
7748;BME280;3918;42.564;23.164;2022-09-30T06:47:11;-11650.84;;;-142.29;56.57
7748;BME280;3918;42.564;23.164;2022-09-30T06:49:37;-11650.84;;;-142.29;57.86
7748;BME280;3918;42.564;23.164;2022-09-30T06:52:04;-11650.84;;;-142.29;55.56
7748;BME280;3918;42.564;23.164;2022-09-30T06:54:31;-11650.84;;;-142.29;57.68
7748;BME280;3918;42.564;23.164;2022-09-30T06:56:58;-11650.84;;;-142.29;57.11
7748;BME280;3918;42.564;23.164;2022-09-30T06:59:25;-11650.84;;;-142.29;57.21
7748;BME280;3918;42.564;23.164;2022-09-30T07:01:54;-11650.84;;;-142.29;58.52
7748;BME280;3918;42.564;23.164;2022-09-30T07:04:21;-11650.84;;;-142.29;60.50
7748;BME280;3918;42.564;23.164;2022-09-30T07:06:47;-11650.84;;;-142.29;58.92
7748;BME280;3918;42.564;23.164;2022-09-30T07:09:14;-11650.84;;;-142.29;56.27
7748;BME280;3918;42.564;23.164;2022-09-30T07:11:42;-11650.84;;;-142.29;55.33
7748;BME280;3918;42.564;23.164;2022-09-30T07:14:09;-11650.84;;;-142.29;55.28
7748;BME280;3918;42.564;23.164;2022-09-30T07:16:38;-11650.84;;;-142.29;56.50
7748;BME280;3918;42.564;23.164;2022-09-30T07:19:06;-11650.84;;;-142.29;54.64
7748;BME280;3918;42.564;23.164;2022-09-30T07:21:34;-11650.84;;;-142.29;52.13
7748;BME280;3918;42.564;23.164;2022-09-30T07:24:01;-11650.84;;;-142.29;51.99
7748;BME280;3918;42.564;23.164;2022-09-30T07:26:28;-11650.84;;;-142.29;50.20
7748;BME280;3918;42.564;23.164;2022-09-30T07:28:55;-11650.84;;;-142.29;51.94
7748;BME280;3918;42.564;23.164;2022-09-30T07:31:23;-11650.84;;;-142.29;51.26
7748;BME280;3918;42.564;23.164;2022-09-30T07:33:51;-11650.84;;;-142.29;52.20
7748;BME280;3918;42.564;23.164;2022-09-30T07:36:20;-11650.84;;;-142.29;53.56
7748;BME280;3918;42.564;23.164;2022-09-30T07:38:51;-11650.84;;;-142.29;51.61
7748;BME280;3918;42.564;23.164;2022-09-30T07:41:21;-11650.84;;;-142.29;51.48
7748;BME280;3918;42.564;23.164;2022-09-30T07:43:52;-11650.84;;;-142.29;51.04
7748;BME280;3918;42.564;23.164;2022-09-30T07:46:22;-11650.84;;;-142.29;50.79
7748;BME280;3918;42.564;23.164;2022-09-30T07:48:51;-11650.84;;;-142.29;50.72
7748;BME280;3918;42.564;23.164;2022-09-30T07:51:24;-11650.84;;;-142.29;51.17
7748;BME280;3918;42.564;23.164;2022-09-30T07:53:53;-11650.84;;;-142.29;50.45
7748;BME280;3918;42.564;23.164;2022-09-30T07:56:20;-11650.84;;;-142.29;50.93
7748;BME280;3918;42.564;23.164;2022-09-30T07:58:47;-11650.84;;;-142.29;51.43
7748;BME280;3918;42.564;23.164;2022-09-30T08:01:15;-11650.84;;;-142.29;50.07
7748;BME280;3918;42.564;23.164;2022-09-30T08:03:42;-11650.84;;;-142.29;51.13
7748;BME280;3918;42.564;23.164;2022-09-30T08:06:12;-11650.84;;;-142.29;49.90
7748;BME280;3918;42.564;23.164;2022-09-30T08:08:41;-11650.84;;;-142.29;51.76
7748;BME280;3918;42.564;23.164;2022-09-30T08:11:08;-11650.84;;;-142.29;51.42
7748;BME280;3918;42.564;23.164;2022-09-30T08:13:35;-11650.84;;;-142.29;53.59
7748;BME280;3918;42.564;23.164;2022-09-30T08:16:02;-11650.84;;;-142.29;52.82
7748;BME280;3918;42.564;23.164;2022-09-30T08:18:29;-11650.84;;;-142.29;54.12
7748;BME280;3918;42.564;23.164;2022-09-30T08:20:56;-11650.84;;;-142.29;53.08
7748;BME280;3918;42.564;23.164;2022-09-30T08:23:27;-11650.84;;;-142.29;56.51
7748;BME280;3918;42.564;23.164;2022-09-30T08:26:01;-11650.84;;;-142.29;54.13
7748;BME280;3918;42.564;23.164;2022-09-30T08:28:28;-11650.84;;;-142.29;53.96
7748;BME280;3918;42.564;23.164;2022-09-30T08:31:02;-11650.84;;;-142.29;53.45
7748;BME280;3918;42.564;23.164;2022-09-30T08:33:29;-11650.84;;;-142.29;52.30
7748;BME280;3918;42.564;23.164;2022-09-30T08:36:01;-11650.84;;;-142.29;53.93
7748;BME280;3918;42.564;23.164;2022-09-30T08:38:28;-11650.84;;;-142.29;56.76
7748;BME280;3918;42.564;23.164;2022-09-30T08:41:04;-11650.84;;;-142.29;55.81
7748;BME280;3918;42.564;23.164;2022-09-30T08:43:39;-11650.84;;;-142.29;54.65
7748;BME280;3918;42.564;23.164;2022-09-30T08:46:16;-11650.84;;;-142.29;55.53
7748;BME280;3918;42.564;23.164;2022-09-30T08:48:50;-11650.84;;;-142.29;55.70
7748;BME280;3918;42.564;23.164;2022-09-30T08:51:28;-11650.84;;;-142.29;55.76
7748;BME280;3918;42.564;23.164;2022-09-30T08:53:58;-11650.84;;;-142.29;57.26
7748;BME280;3918;42.564;23.164;2022-09-30T08:56:31;-11650.84;;;-142.29;58.22
7748;BME280;3918;42.564;23.164;2022-09-30T08:59:07;-11650.84;;;-142.29;59.91
7748;BME280;3918;42.564;23.164;2022-09-30T09:01:43;-11650.84;;;-142.29;61.72
7748;BME280;3918;42.564;23.164;2022-09-30T09:04:12;-11650.84;;;-142.29;62.51
7748;BME280;3918;42.564;23.164;2022-09-30T09:06:46;-11650.84;;;-142.29;62.82
7748;BME280;3918;42.564;23.164;2022-09-30T09:09:39;-11650.84;;;-142.29;62.75
7748;BME280;3918;42.564;23.164;2022-09-30T09:12:18;-11650.84;;;-142.29;63.08
7748;BME280;3918;42.564;23.164;2022-09-30T09:35:28;-11650.84;;;-142.29;65.11
7748;BME280;3918;42.564;23.164;2022-09-30T09:38:02;-11650.84;;;-142.29;67.66
7748;BME280;3918;42.564;23.164;2022-09-30T09:41:09;-11650.84;;;-142.29;67.72
7748;BME280;3918;42.564;23.164;2022-09-30T09:43:50;-11650.84;;;-142.29;67.69
7748;BME280;3918;42.564;23.164;2022-09-30T09:46:25;-11650.84;;;-142.29;67.47
7748;BME280;3918;42.564;23.164;2022-09-30T09:49:29;-11650.84;;;-142.29;68.07
7748;BME280;3918;42.564;23.164;2022-09-30T09:55:12;-11650.84;;;-142.29;67.02
7748;BME280;3918;42.564;23.164;2022-09-30T09:57:40;-11650.84;;;-142.29;67.54
7748;BME280;3918;42.564;23.164;2022-09-30T10:00:08;-11650.84;;;-142.29;68.85
7748;BME280;3918;42.564;23.164;2022-09-30T10:02:58;-11650.84;;;-142.29;68.75
7748;BME280;3918;42.564;23.164;2022-09-30T10:05:26;-11650.84;;;-142.29;67.85
7748;BME280;3918;42.564;23.164;2022-09-30T10:08:10;-11650.84;;;-142.29;65.99
7748;BME280;3918;42.564;23.164;2022-09-30T10:10:45;-11650.84;;;-142.29;65.31
7748;BME280;3918;42.564;23.164;2022-09-30T10:13:15;-11650.84;;;-142.29;67.01
7748;BME280;3918;42.564;23.164;2022-09-30T10:15:42;-11650.84;;;-142.29;66.17
7748;BME280;3918;42.564;23.164;2022-09-30T10:18:17;-11650.84;;;-142.29;65.80
7748;BME280;3918;42.564;23.164;2022-09-30T10:20:50;-11650.84;;;-142.29;66.08
7748;BME280;3918;42.564;23.164;2022-09-30T10:23:20;-11650.84;;;-142.29;65.76
7748;BME280;3918;42.564;23.164;2022-09-30T10:25:55;-11650.84;;;-142.29;65.22
7748;BME280;3918;42.564;23.164;2022-09-30T10:28:24;-11650.84;;;-142.29;66.61
7748;BME280;3918;42.564;23.164;2022-09-30T10:30:55;-11650.84;;;-142.29;66.09
7748;BME280;3918;42.564;23.164;2022-09-30T10:33:27;-11650.84;;;-142.29;65.37
7748;BME280;3918;42.564;23.164;2022-09-30T10:36:00;-11650.84;;;-142.29;64.16
7748;BME280;3918;42.564;23.164;2022-09-30T10:38:30;-11650.84;;;-142.29;62.60
7748;BME280;3918;42.564;23.164;2022-09-30T10:40:59;-11650.84;;;-142.29;61.81
7748;BME280;3918;42.564;23.164;2022-09-30T10:43:30;-11650.84;;;-142.29;62.67
7748;BME280;3918;42.564;23.164;2022-09-30T10:45:59;-11650.84;;;-142.29;61.26
7748;BME280;3918;42.564;23.164;2022-09-30T10:48:32;-11650.84;;;-142.29;61.67
7748;BME280;3918;42.564;23.164;2022-09-30T10:50:59;-11650.84;;;-142.29;60.38
7748;BME280;3918;42.564;23.164;2022-09-30T10:53:27;-11650.84;;;-142.29;60.58
7748;BME280;3918;42.564;23.164;2022-09-30T10:55:56;-11650.84;;;-142.29;61.09
7748;BME280;3918;42.564;23.164;2022-09-30T10:58:36;-11650.84;;;-142.29;60.63
7748;BME280;3918;42.564;23.164;2022-09-30T11:01:14;-11650.84;;;-142.29;61.45
7748;BME280;3918;42.564;23.164;2022-09-30T11:03:51;-11650.84;;;-142.29;60.40
7748;BME280;3918;42.564;23.164;2022-09-30T11:06:21;-11650.84;;;-142.29;61.50
7748;BME280;3918;42.564;23.164;2022-09-30T11:08:54;-11650.84;;;-142.29;61.56
7748;BME280;3918;42.564;23.164;2022-09-30T11:11:27;-11650.84;;;-142.29;61.64
7748;BME280;3918;42.564;23.164;2022-09-30T11:13:58;-11650.84;;;-142.29;61.34
7748;BME280;3918;42.564;23.164;2022-09-30T11:16:32;-11650.84;;;-142.29;60.35
7748;BME280;3918;42.564;23.164;2022-09-30T11:19:08;-11650.84;;;-142.29;59.69
7748;BME280;3918;42.564;23.164;2022-09-30T11:21:41;-11650.84;;;-142.29;59.42
7748;BME280;3918;42.564;23.164;2022-09-30T11:24:20;-11650.84;;;-142.29;57.46
7748;BME280;3918;42.564;23.164;2022-09-30T11:27:00;-11650.84;;;-142.29;59.34
7748;BME280;3918;42.564;23.164;2022-09-30T11:29:59;-11650.84;;;-142.29;59.03
7748;BME280;3918;42.564;23.164;2022-09-30T11:32:46;-11650.84;;;-142.29;59.01
7748;BME280;3918;42.564;23.164;2022-09-30T11:35:40;-11650.84;;;-142.29;58.74
7748;BME280;3918;42.564;23.164;2022-09-30T11:38:21;-11650.84;;;-142.29;57.33
7748;BME280;3918;42.564;23.164;2022-09-30T11:40:58;-11650.84;;;-142.29;57.95
7748;BME280;3918;42.564;23.164;2022-09-30T11:43:35;-11650.84;;;-142.29;58.93
7748;BME280;3918;42.564;23.164;2022-09-30T11:46:29;-11650.84;;;-142.29;59.42
7748;BME280;3918;42.564;23.164;2022-09-30T11:49:21;-11650.84;;;-142.29;58.88
7748;BME280;3918;42.564;23.164;2022-09-30T11:51:56;-11650.84;;;-142.29;59.15
7748;BME280;3918;42.564;23.164;2022-09-30T11:54:39;-11650.84;;;-142.29;58.79
7748;BME280;3918;42.564;23.164;2022-09-30T11:57:13;-11650.84;;;-142.29;58.74
7748;BME280;3918;42.564;23.164;2022-09-30T11:59:49;-11650.84;;;-142.29;60.11
7748;BME280;3918;42.564;23.164;2022-09-30T12:02:27;-11650.84;;;-142.29;59.48
7748;BME280;3918;42.564;23.164;2022-09-30T12:04:59;-11650.84;;;-142.29;58.39
7748;BME280;3918;42.564;23.164;2022-09-30T12:07:35;-11650.84;;;-142.29;60.42
7748;BME280;3918;42.564;23.164;2022-09-30T12:10:12;-11650.84;;;-142.29;59.69
7748;BME280;3918;42.564;23.164;2022-09-30T12:12:42;-11650.84;;;-142.29;59.45
7748;BME280;3918;42.564;23.164;2022-09-30T12:15:14;-11650.84;;;-142.29;60.72
7748;BME280;3918;42.564;23.164;2022-09-30T12:17:44;-11650.84;;;-142.29;59.29
7748;BME280;3918;42.564;23.164;2022-09-30T12:20:16;-11650.84;;;-142.29;58.35
7748;BME280;3918;42.564;23.164;2022-09-30T12:22:45;-11650.84;;;-142.29;57.44
7748;BME280;3918;42.564;23.164;2022-09-30T12:25:17;-11650.84;;;-142.29;56.33
7748;BME280;3918;42.564;23.164;2022-09-30T12:27:48;-11650.84;;;-142.29;56.98
7748;BME280;3918;42.564;23.164;2022-09-30T12:30:21;-11650.84;;;-142.29;57.13
7748;BME280;3918;42.564;23.164;2022-09-30T12:33:13;-11650.84;;;-142.29;56.00
7748;BME280;3918;42.564;23.164;2022-09-30T12:36:07;-11650.84;;;-142.29;57.74
7748;BME280;3918;42.564;23.164;2022-09-30T12:38:51;-11650.84;;;-142.29;56.58
7748;BME280;3918;42.564;23.164;2022-09-30T12:41:41;-11650.84;;;-142.29;55.27
7748;BME280;3918;42.564;23.164;2022-09-30T12:44:30;-11650.84;;;-142.29;55.87
7748;BME280;3918;42.564;23.164;2022-09-30T12:47:11;-11650.84;;;-142.29;56.74
7748;BME280;3918;42.564;23.164;2022-09-30T12:49:42;-11650.84;;;-142.29;54.59
7748;BME280;3918;42.564;23.164;2022-09-30T12:52:14;-11650.84;;;-142.29;54.52
7748;BME280;3918;42.564;23.164;2022-09-30T12:54:46;-11650.84;;;-142.29;54.30
7748;BME280;3918;42.564;23.164;2022-09-30T12:57:19;-11650.84;;;-142.29;55.97
7748;BME280;3918;42.564;23.164;2022-09-30T12:59:50;-11650.84;;;-142.29;54.92
7748;BME280;3918;42.564;23.164;2022-09-30T13:02:31;-11650.84;;;-142.29;54.00
7748;BME280;3918;42.564;23.164;2022-09-30T13:08:22;-11650.84;;;-142.29;53.75
7748;BME280;3918;42.564;23.164;2022-09-30T13:10:56;-11650.84;;;-142.29;54.86
7748;BME280;3918;42.564;23.164;2022-09-30T13:13:25;-11650.84;;;-142.29;55.17
7748;BME280;3918;42.564;23.164;2022-09-30T13:15:53;-11650.84;;;-142.29;55.22
7748;BME280;3918;42.564;23.164;2022-09-30T13:19:02;-11650.84;;;-142.29;56.00
7748;BME280;3918;42.564;23.164;2022-09-30T13:21:29;-11650.84;;;-142.29;55.41
7748;BME280;3918;42.564;23.164;2022-09-30T13:23:56;-11650.84;;;-142.29;56.24
7748;BME280;3918;42.564;23.164;2022-09-30T13:26:38;-11650.84;;;-142.29;55.15
7748;BME280;3918;42.564;23.164;2022-09-30T13:32:30;-11650.84;;;-142.29;55.99
7748;BME280;3918;42.564;23.164;2022-09-30T13:34:59;-11650.84;;;-142.29;56.33
7748;BME280;3918;42.564;23.164;2022-09-30T13:37:41;-11650.84;;;-142.29;56.67
7748;BME280;3918;42.564;23.164;2022-09-30T13:40:19;-11650.84;;;-142.29;56.65
7748;BME280;3918;42.564;23.164;2022-09-30T13:42:51;-11650.84;;;-142.29;56.78
7748;BME280;3918;42.564;23.164;2022-09-30T13:45:26;-11650.84;;;-142.29;57.30
7748;BME280;3918;42.564;23.164;2022-09-30T13:48:04;-11650.84;;;-142.29;56.99
7748;BME280;3918;42.564;23.164;2022-09-30T13:50:41;-11650.84;;;-142.29;57.81
7748;BME280;3918;42.564;23.164;2022-09-30T13:53:19;-11650.84;;;-142.29;58.09
7748;BME280;3918;42.564;23.164;2022-09-30T13:55:49;-11650.84;;;-142.29;58.01
7748;BME280;3918;42.564;23.164;2022-09-30T13:58:42;-11650.84;;;-142.29;57.09
7748;BME280;3918;42.564;23.164;2022-09-30T14:01:21;-11650.84;;;-142.29;57.13
7748;BME280;3918;42.564;23.164;2022-09-30T14:04:10;-11650.84;;;-142.29;56.65
7748;BME280;3918;42.564;23.164;2022-09-30T14:06:48;-11650.84;;;-142.29;56.13
7748;BME280;3918;42.564;23.164;2022-09-30T14:09:45;-11650.84;;;-142.29;56.71
7748;BME280;3918;42.564;23.164;2022-09-30T14:12:37;-11650.84;;;-142.29;56.51
7748;BME280;3918;42.564;23.164;2022-09-30T14:15:37;-11650.84;;;-142.29;57.01
7748;BME280;3918;42.564;23.164;2022-09-30T14:18:27;-11650.84;;;-142.29;56.95
7748;BME280;3918;42.564;23.164;2022-09-30T14:21:05;-11650.84;;;-142.29;57.28
7748;BME280;3918;42.564;23.164;2022-09-30T14:23:39;-11650.84;;;-142.29;58.47
7748;BME280;3918;42.564;23.164;2022-09-30T14:26:32;-11650.84;;;-142.29;58.59
7748;BME280;3918;42.564;23.164;2022-09-30T14:29:04;-11650.84;;;-142.29;58.46
7748;BME280;3918;42.564;23.164;2022-09-30T14:31:41;-11650.84;;;-142.29;59.36
7748;BME280;3918;42.564;23.164;2022-09-30T14:34:10;-11650.84;;;-142.29;59.91
7748;BME280;3918;42.564;23.164;2022-09-30T14:36:38;-11650.84;;;-142.29;59.65
7748;BME280;3918;42.564;23.164;2022-09-30T14:39:14;-11650.84;;;-142.29;59.91
7748;BME280;3918;42.564;23.164;2022-09-30T14:41:48;-11650.84;;;-142.29;59.23
7748;BME280;3918;42.564;23.164;2022-09-30T14:44:16;-11650.84;;;-142.29;58.50
7748;BME280;3918;42.564;23.164;2022-09-30T14:46:45;-11650.84;;;-142.29;59.38
7748;BME280;3918;42.564;23.164;2022-09-30T14:49:14;-11650.84;;;-142.29;59.81
7748;BME280;3918;42.564;23.164;2022-09-30T14:51:45;-11650.84;;;-142.29;60.77
7748;BME280;3918;42.564;23.164;2022-09-30T14:54:19;-11650.84;;;-142.29;60.75
7748;BME280;3918;42.564;23.164;2022-09-30T14:56:47;-11650.84;;;-142.29;61.20
7748;BME280;3918;42.564;23.164;2022-09-30T14:59:16;-11650.84;;;-142.29;60.91
7748;BME280;3918;42.564;23.164;2022-09-30T15:01:45;-11650.84;;;-142.29;61.54
7748;BME280;3918;42.564;23.164;2022-09-30T15:04:15;-11650.84;;;-142.29;61.86
7748;BME280;3918;42.564;23.164;2022-09-30T15:06:45;-11650.84;;;-142.29;62.18
7748;BME280;3918;42.564;23.164;2022-09-30T15:09:15;-11650.84;;;-142.29;62.61
7748;BME280;3918;42.564;23.164;2022-09-30T15:11:44;-11650.84;;;-142.29;62.03
7748;BME280;3918;42.564;23.164;2022-09-30T15:14:16;-11650.84;;;-142.29;62.67
7748;BME280;3918;42.564;23.164;2022-09-30T15:16:45;-11650.84;;;-142.29;61.86
7748;BME280;3918;42.564;23.164;2022-09-30T15:19:17;-11650.84;;;-142.29;62.95
7748;BME280;3918;42.564;23.164;2022-09-30T15:21:45;-11650.84;;;-142.29;63.16
7748;BME280;3918;42.564;23.164;2022-09-30T15:24:14;-11650.84;;;-142.29;62.85
7748;BME280;3918;42.564;23.164;2022-09-30T15:26:43;-11650.84;;;-142.29;64.08
7748;BME280;3918;42.564;23.164;2022-09-30T15:29:11;-11650.84;;;-142.29;65.22
7748;BME280;3918;42.564;23.164;2022-09-30T15:31:43;-11650.84;;;-142.29;66.09
7748;BME280;3918;42.564;23.164;2022-09-30T15:34:15;-11650.84;;;-142.29;66.38
7748;BME280;3918;42.564;23.164;2022-09-30T15:36:43;-11650.84;;;-142.29;66.12
7748;BME280;3918;42.564;23.164;2022-09-30T15:39:21;-11650.84;;;-142.29;66.53
7748;BME280;3918;42.564;23.164;2022-09-30T15:41:51;-11650.84;;;-142.29;67.83
7748;BME280;3918;42.564;23.164;2022-09-30T15:44:35;-11650.84;;;-142.29;68.11
7748;BME280;3918;42.564;23.164;2022-09-30T15:47:04;-11650.84;;;-142.29;68.73
7748;BME280;3918;42.564;23.164;2022-09-30T15:49:43;-11650.84;;;-142.29;68.34
7748;BME280;3918;42.564;23.164;2022-09-30T15:52:29;-11650.84;;;-142.29;68.94
7748;BME280;3918;42.564;23.164;2022-09-30T15:55:01;-11650.84;;;-142.29;69.71
7748;BME280;3918;42.564;23.164;2022-09-30T15:57:47;-11650.84;;;-142.29;70.29
7748;BME280;3918;42.564;23.164;2022-09-30T16:00:36;-11650.84;;;-142.29;70.08
7748;BME280;3918;42.564;23.164;2022-09-30T16:03:24;-11650.84;;;-142.29;70.50
7748;BME280;3918;42.564;23.164;2022-09-30T16:05:53;-11650.84;;;-142.29;74.10
7748;BME280;3918;42.564;23.164;2022-09-30T16:08:41;-11650.84;;;-142.29;75.30
7748;BME280;3918;42.564;23.164;2022-09-30T16:11:16;-11650.84;;;-142.29;75.19
7748;BME280;3918;42.564;23.164;2022-09-30T16:13:46;-11650.84;;;-142.29;76.02
7748;BME280;3918;42.564;23.164;2022-09-30T16:16:19;-11650.84;;;-142.29;77.97
7748;BME280;3918;42.564;23.164;2022-09-30T16:18:47;-11650.84;;;-142.29;81.87
7748;BME280;3918;42.564;23.164;2022-09-30T16:21:30;-11650.84;;;-142.29;89.60
7748;BME280;3918;42.564;23.164;2022-09-30T16:24:45;-11650.84;;;-142.29;93.78
7748;BME280;3918;42.564;23.164;2022-09-30T16:27:29;-11650.84;;;-142.29;98.40
7748;BME280;3918;42.564;23.164;2022-09-30T16:29:59;-11650.84;;;-142.29;100.00
7748;BME280;3918;42.564;23.164;2022-09-30T16:32:31;-11650.84;;;-142.29;100.00
7748;BME280;3918;42.564;23.164;2022-09-30T16:34:58;-11650.84;;;-142.29;100.00
7748;BME280;3918;42.564;23.164;2022-09-30T16:37:25;-11650.84;;;-142.29;100.00
7748;BME280;3918;42.564;23.164;2022-09-30T16:39:54;-11650.84;;;-142.29;100.00
7748;BME280;3918;42.564;23.164;2022-09-30T16:42:21;-11650.84;;;-142.29;100.00
7748;BME280;3918;42.564;23.164;2022-09-30T16:44:48;-11650.84;;;-142.29;100.00
7748;BME280;3918;42.564;23.164;2022-09-30T16:47:17;-11650.84;;;-142.29;100.00
7748;BME280;3918;42.564;23.164;2022-09-30T16:49:45;-11650.84;;;-142.29;100.00
7748;BME280;3918;42.564;23.164;2022-09-30T16:52:12;-11650.84;;;-142.29;100.00
7748;BME280;3918;42.564;23.164;2022-09-30T16:54:40;-11650.84;;;-142.29;100.00
7748;BME280;3918;42.564;23.164;2022-09-30T16:57:11;-11650.84;;;-142.29;100.00
7748;BME280;3918;42.564;23.164;2022-09-30T16:59:38;-11650.84;;;-142.29;100.00
7748;BME280;3918;42.564;23.164;2022-09-30T17:02:11;-11650.84;;;-142.29;100.00
7748;BME280;3918;42.564;23.164;2022-09-30T17:04:40;-11650.84;;;-142.29;100.00
7748;BME280;3918;42.564;23.164;2022-09-30T17:07:10;-11650.84;;;-142.29;100.00
7748;BME280;3918;42.564;23.164;2022-09-30T17:09:39;-11650.84;;;-142.29;100.00
7748;BME280;3918;42.564;23.164;2022-09-30T17:12:07;-11650.84;;;-142.29;100.00
7748;BME280;3918;42.564;23.164;2022-09-30T17:14:35;-11650.84;;;-142.29;100.00
7748;BME280;3918;42.564;23.164;2022-09-30T17:17:01;-11650.84;;;-142.29;100.00
7748;BME280;3918;42.564;23.164;2022-09-30T17:19:28;-11650.84;;;-142.29;100.00
7748;BME280;3918;42.564;23.164;2022-09-30T17:22:01;-11650.84;;;-142.29;100.00
7748;BME280;3918;42.564;23.164;2022-09-30T17:24:28;-11650.84;;;-142.29;100.00
7748;BME280;3918;42.564;23.164;2022-09-30T17:26:55;-11650.84;;;-142.29;100.00
7748;BME280;3918;42.564;23.164;2022-09-30T17:29:22;-11650.84;;;-142.29;100.00
7748;BME280;3918;42.564;23.164;2022-09-30T17:31:49;-11650.84;;;-142.29;100.00
7748;BME280;3918;42.564;23.164;2022-09-30T17:34:18;-11650.84;;;-142.29;100.00
7748;BME280;3918;42.564;23.164;2022-09-30T17:36:44;-11650.84;;;-142.29;100.00
7748;BME280;3918;42.564;23.164;2022-09-30T17:39:13;-11650.84;;;-142.29;100.00
7748;BME280;3918;42.564;23.164;2022-09-30T17:41:41;-11650.84;;;-142.29;99.48
7748;BME280;3918;42.564;23.164;2022-09-30T17:44:25;-11650.84;;;-142.29;98.95
7748;BME280;3918;42.564;23.164;2022-09-30T17:46:51;-11650.84;;;-142.29;96.70
7748;BME280;3918;42.564;23.164;2022-09-30T17:49:30;-11650.84;;;-142.29;97.22
7748;BME280;3918;42.564;23.164;2022-09-30T17:51:57;-11650.84;;;-142.29;96.94
7748;BME280;3918;42.564;23.164;2022-09-30T17:54:26;-11650.84;;;-142.29;96.91
7748;BME280;3918;42.564;23.164;2022-09-30T17:56:53;-11650.84;;;-142.29;96.55
7748;BME280;3918;42.564;23.164;2022-09-30T17:59:20;-11650.84;;;-142.29;95.92
7748;BME280;3918;42.564;23.164;2022-09-30T18:01:47;-11650.84;;;-142.29;95.36
7748;BME280;3918;42.564;23.164;2022-09-30T18:04:15;-11650.84;;;-142.29;95.55
7748;BME280;3918;42.564;23.164;2022-09-30T18:06:42;-11650.84;;;-142.29;95.77
7748;BME280;3918;42.564;23.164;2022-09-30T18:09:09;-11650.84;;;-142.29;95.81
7748;BME280;3918;42.564;23.164;2022-09-30T18:11:37;-11650.84;;;-142.29;95.57
7748;BME280;3918;42.564;23.164;2022-09-30T18:14:04;-11650.84;;;-142.29;95.95
7748;BME280;3918;42.564;23.164;2022-09-30T18:16:31;-11650.84;;;-142.29;94.62
7748;BME280;3918;42.564;23.164;2022-09-30T18:19:00;-11650.84;;;-142.29;93.60
7748;BME280;3918;42.564;23.164;2022-09-30T18:21:27;-11650.84;;;-142.29;93.00
7748;BME280;3918;42.564;23.164;2022-09-30T18:23:55;-11650.84;;;-142.29;93.43
7748;BME280;3918;42.564;23.164;2022-09-30T18:26:23;-11650.84;;;-142.29;92.64
7748;BME280;3918;42.564;23.164;2022-09-30T18:28:52;-11650.84;;;-142.29;92.97
7748;BME280;3918;42.564;23.164;2022-09-30T18:31:19;-11650.84;;;-142.29;92.37
7748;BME280;3918;42.564;23.164;2022-09-30T18:33:53;-11650.84;;;-142.29;91.26
7748;BME280;3918;42.564;23.164;2022-09-30T18:36:20;-11650.84;;;-142.29;90.58